sensor_id;sensor_type;location;lat;lon;timestamp;P1;durP1;ratioP1;P2;durP2;ratioP2
61572;SDS011;47465;43.094;12.434;2024-01-30T00:00:19;14.43;;;4.93;;
61572;SDS011;47465;43.094;12.434;2024-01-30T00:02:46;12.60;;;5.85;;
61572;SDS011;47465;43.094;12.434;2024-01-30T00:05:14;9.27;;;5.10;;
61572;SDS011;47465;43.094;12.434;2024-01-30T00:07:43;11.45;;;5.32;;
61572;SDS011;47465;43.094;12.434;2024-01-30T00:10:09;11.52;;;6.93;;
61572;SDS011;47465;43.094;12.434;2024-01-30T00:12:35;13.93;;;6.53;;
61572;SDS011;47465;43.094;12.434;2024-01-30T00:15:01;11.00;;;6.18;;
61572;SDS011;47465;43.094;12.434;2024-01-30T00:17:29;9.45;;;6.20;;
61572;SDS011;47465;43.094;12.434;2024-01-30T00:19:56;12.48;;;6.00;;
61572;SDS011;47465;43.094;12.434;2024-01-30T00:22:23;10.65;;;6.22;;
61572;SDS011;47465;43.094;12.434;2024-01-30T00:24:49;12.65;;;6.18;;
61572;SDS011;47465;43.094;12.434;2024-01-30T00:27:15;13.07;;;6.00;;
61572;SDS011;47465;43.094;12.434;2024-01-30T00:29:41;8.63;;;4.97;;
61572;SDS011;47465;43.094;12.434;2024-01-30T00:32:07;7.97;;;4.40;;
61572;SDS011;47465;43.094;12.434;2024-01-30T00:34:33;6.07;;;3.70;;
61572;SDS011;47465;43.094;12.434;2024-01-30T00:36:59;6.28;;;3.05;;
61572;SDS011;47465;43.094;12.434;2024-01-30T00:39:27;7.30;;;3.03;;
61572;SDS011;47465;43.094;12.434;2024-01-30T00:41:53;11.02;;;4.35;;
61572;SDS011;47465;43.094;12.434;2024-01-30T00:44:19;10.50;;;4.05;;
61572;SDS011;47465;43.094;12.434;2024-01-30T00:46:45;11.80;;;6.03;;
61572;SDS011;47465;43.094;12.434;2024-01-30T00:49:11;12.05;;;6.18;;
61572;SDS011;47465;43.094;12.434;2024-01-30T00:51:37;11.02;;;5.55;;
61572;SDS011;47465;43.094;12.434;2024-01-30T00:54:03;12.55;;;6.15;;
61572;SDS011;47465;43.094;12.434;2024-01-30T00:56:32;10.20;;;6.18;;
61572;SDS011;47465;43.094;12.434;2024-01-30T00:58:58;10.10;;;5.63;;
61572;SDS011;47465;43.094;12.434;2024-01-30T01:01:24;12.63;;;6.15;;
61572;SDS011;47465;43.094;12.434;2024-01-30T01:03:50;12.05;;;5.50;;
61572;SDS011;47465;43.094;12.434;2024-01-30T01:06:16;11.50;;;5.38;;
61572;SDS011;47465;43.094;12.434;2024-01-30T01:08:42;8.43;;;4.57;;
61572;SDS011;47465;43.094;12.434;2024-01-30T01:11:08;6.63;;;4.22;;
61572;SDS011;47465;43.094;12.434;2024-01-30T01:13:39;5.57;;;3.53;;
61572;SDS011;47465;43.094;12.434;2024-01-30T01:16:05;13.52;;;4.68;;
61572;SDS011;47465;43.094;12.434;2024-01-30T01:18:31;6.78;;;4.03;;
61572;SDS011;47465;43.094;12.434;2024-01-30T01:20:57;6.43;;;3.95;;
61572;SDS011;47465;43.094;12.434;2024-01-30T01:23:23;7.97;;;4.00;;
61572;SDS011;47465;43.094;12.434;2024-01-30T01:25:49;6.00;;;3.53;;
61572;SDS011;47465;43.094;12.434;2024-01-30T01:28:15;9.10;;;3.97;;
61572;SDS011;47465;43.094;12.434;2024-01-30T01:30:43;6.40;;;3.50;;
61572;SDS011;47465;43.094;12.434;2024-01-30T01:33:09;6.88;;;3.38;;
61572;SDS011;47465;43.094;12.434;2024-01-30T01:35:39;6.63;;;3.53;;
61572;SDS011;47465;43.094;12.434;2024-01-30T01:38:05;7.45;;;3.30;;
61572;SDS011;47465;43.094;12.434;2024-01-30T01:40:31;6.47;;;3.65;;
61572;SDS011;47465;43.094;12.434;2024-01-30T01:42:58;6.60;;;2.83;;
61572;SDS011;47465;43.094;12.434;2024-01-30T01:45:24;5.38;;;3.60;;
61572;SDS011;47465;43.094;12.434;2024-01-30T01:47:51;7.82;;;3.70;;
61572;SDS011;47465;43.094;12.434;2024-01-30T01:50:18;6.80;;;3.40;;
61572;SDS011;47465;43.094;12.434;2024-01-30T01:52:46;7.28;;;3.30;;
61572;SDS011;47465;43.094;12.434;2024-01-30T01:55:13;7.13;;;3.67;;
61572;SDS011;47465;43.094;12.434;2024-01-30T01:57:40;5.57;;;2.95;;
61572;SDS011;47465;43.094;12.434;2024-01-30T02:00:07;9.27;;;2.97;;
61572;SDS011;47465;43.094;12.434;2024-01-30T02:02:35;7.18;;;3.80;;
61572;SDS011;47465;43.094;12.434;2024-01-30T02:05:04;6.15;;;2.97;;
61572;SDS011;47465;43.094;12.434;2024-01-30T02:07:30;6.40;;;2.83;;
61572;SDS011;47465;43.094;12.434;2024-01-30T02:09:58;5.38;;;2.97;;
61572;SDS011;47465;43.094;12.434;2024-01-30T02:12:24;10.60;;;3.95;;
61572;SDS011;47465;43.094;12.434;2024-01-30T02:14:50;5.13;;;3.67;;
61572;SDS011;47465;43.094;12.434;2024-01-30T02:17:16;6.38;;;3.20;;
61572;SDS011;47465;43.094;12.434;2024-01-30T02:19:42;7.75;;;3.42;;
61572;SDS011;47465;43.094;12.434;2024-01-30T02:22:10;5.35;;;2.63;;
61572;SDS011;47465;43.094;12.434;2024-01-30T02:24:36;5.00;;;3.10;;
61572;SDS011;47465;43.094;12.434;2024-01-30T02:27:02;6.13;;;3.63;;
61572;SDS011;47465;43.094;12.434;2024-01-30T02:29:28;3.92;;;2.63;;
61572;SDS011;47465;43.094;12.434;2024-01-30T02:31:54;8.10;;;3.92;;
61572;SDS011;47465;43.094;12.434;2024-01-30T02:34:20;6.28;;;3.33;;
61572;SDS011;47465;43.094;12.434;2024-01-30T02:36:46;5.20;;;3.53;;
61572;SDS011;47465;43.094;12.434;2024-01-30T02:39:14;5.95;;;3.15;;
61572;SDS011;47465;43.094;12.434;2024-01-30T02:41:40;6.65;;;3.83;;
61572;SDS011;47465;43.094;12.434;2024-01-30T02:44:06;6.03;;;3.20;;
61572;SDS011;47465;43.094;12.434;2024-01-30T02:46:32;6.97;;;3.33;;
61572;SDS011;47465;43.094;12.434;2024-01-30T02:48:58;7.47;;;3.75;;
61572;SDS011;47465;43.094;12.434;2024-01-30T02:51:25;6.75;;;3.42;;
61572;SDS011;47465;43.094;12.434;2024-01-30T02:53:50;6.40;;;3.63;;
61572;SDS011;47465;43.094;12.434;2024-01-30T02:56:18;8.82;;;2.88;;
61572;SDS011;47465;43.094;12.434;2024-01-30T02:58:44;9.15;;;3.17;;
61572;SDS011;47465;43.094;12.434;2024-01-30T03:01:10;6.97;;;3.30;;
61572;SDS011;47465;43.094;12.434;2024-01-30T03:03:36;9.57;;;4.15;;
61572;SDS011;47465;43.094;12.434;2024-01-30T03:06:02;5.88;;;3.40;;
61572;SDS011;47465;43.094;12.434;2024-01-30T03:08:29;7.40;;;3.35;;
61572;SDS011;47465;43.094;12.434;2024-01-30T03:10:55;7.30;;;3.80;;
61572;SDS011;47465;43.094;12.434;2024-01-30T03:13:22;9.48;;;4.10;;
61572;SDS011;47465;43.094;12.434;2024-01-30T03:15:50;9.40;;;4.28;;
61572;SDS011;47465;43.094;12.434;2024-01-30T03:18:16;6.63;;;3.55;;
61572;SDS011;47465;43.094;12.434;2024-01-30T03:20:42;7.95;;;5.20;;
61572;SDS011;47465;43.094;12.434;2024-01-30T03:23:08;14.23;;;5.30;;
61572;SDS011;47465;43.094;12.434;2024-01-30T03:25:34;11.02;;;5.32;;
61572;SDS011;47465;43.094;12.434;2024-01-30T03:28:00;7.50;;;5.13;;
61572;SDS011;47465;43.094;12.434;2024-01-30T03:30:28;12.32;;;4.68;;
61572;SDS011;47465;43.094;12.434;2024-01-30T03:32:54;9.98;;;5.20;;
61572;SDS011;47465;43.094;12.434;2024-01-30T03:35:20;6.03;;;4.22;;
61572;SDS011;47465;43.094;12.434;2024-01-30T03:37:46;7.30;;;3.58;;
61572;SDS011;47465;43.094;12.434;2024-01-30T03:40:12;5.45;;;3.45;;
61572;SDS011;47465;43.094;12.434;2024-01-30T03:42:38;8.68;;;4.80;;
61572;SDS011;47465;43.094;12.434;2024-01-30T03:45:05;9.68;;;3.95;;
61572;SDS011;47465;43.094;12.434;2024-01-30T03:47:33;7.85;;;3.80;;
61572;SDS011;47465;43.094;12.434;2024-01-30T03:49:59;6.22;;;3.45;;
61572;SDS011;47465;43.094;12.434;2024-01-30T03:52:25;7.38;;;2.85;;
61572;SDS011;47465;43.094;12.434;2024-01-30T03:54:51;5.60;;;3.22;;
61572;SDS011;47465;43.094;12.434;2024-01-30T03:57:17;4.93;;;2.28;;
61572;SDS011;47465;43.094;12.434;2024-01-30T03:59:43;6.07;;;3.47;;
61572;SDS011;47465;43.094;12.434;2024-01-30T04:02:09;6.45;;;3.13;;
61572;SDS011;47465;43.094;12.434;2024-01-30T04:04:37;6.82;;;3.60;;
61572;SDS011;47465;43.094;12.434;2024-01-30T04:07:03;12.07;;;3.38;;
61572;SDS011;47465;43.094;12.434;2024-01-30T04:09:29;5.75;;;3.53;;
61572;SDS011;47465;43.094;12.434;2024-01-30T04:11:55;12.00;;;3.83;;
61572;SDS011;47465;43.094;12.434;2024-01-30T04:14:21;6.60;;;3.50;;
61572;SDS011;47465;43.094;12.434;2024-01-30T04:16:51;9.75;;;4.25;;
61572;SDS011;47465;43.094;12.434;2024-01-30T04:19:17;6.82;;;4.10;;
61572;SDS011;47465;43.094;12.434;2024-01-30T04:21:44;12.70;;;5.55;;
61572;SDS011;47465;43.094;12.434;2024-01-30T04:24:10;13.07;;;6.03;;
61572;SDS011;47465;43.094;12.434;2024-01-30T04:26:37;15.23;;;5.43;;
61572;SDS011;47465;43.094;12.434;2024-01-30T04:29:05;12.07;;;3.97;;
61572;SDS011;47465;43.094;12.434;2024-01-30T04:31:31;13.27;;;3.90;;
61572;SDS011;47465;43.094;12.434;2024-01-30T04:33:57;18.75;;;5.97;;
61572;SDS011;47465;43.094;12.434;2024-01-30T04:36:23;13.45;;;6.43;;
61572;SDS011;47465;43.094;12.434;2024-01-30T04:38:50;9.93;;;5.07;;
61572;SDS011;47465;43.094;12.434;2024-01-30T04:41:16;8.25;;;3.90;;
61572;SDS011;47465;43.094;12.434;2024-01-30T04:43:42;13.00;;;4.95;;
61572;SDS011;47465;43.094;12.434;2024-01-30T04:46:08;12.98;;;5.10;;
61572;SDS011;47465;43.094;12.434;2024-01-30T04:48:34;11.25;;;5.05;;
61572;SDS011;47465;43.094;12.434;2024-01-30T04:51:00;14.93;;;5.38;;
61572;SDS011;47465;43.094;12.434;2024-01-30T04:53:29;9.95;;;4.60;;
61572;SDS011;47465;43.094;12.434;2024-01-30T04:55:57;11.88;;;4.25;;
61572;SDS011;47465;43.094;12.434;2024-01-30T04:58:23;14.25;;;4.40;;
61572;SDS011;47465;43.094;12.434;2024-01-30T05:00:50;8.55;;;3.50;;
61572;SDS011;47465;43.094;12.434;2024-01-30T05:03:17;12.15;;;5.15;;
61572;SDS011;47465;43.094;12.434;2024-01-30T05:05:43;11.10;;;4.63;;
61572;SDS011;47465;43.094;12.434;2024-01-30T05:08:09;9.18;;;3.67;;
61572;SDS011;47465;43.094;12.434;2024-01-30T05:10:35;9.15;;;4.35;;
61572;SDS011;47465;43.094;12.434;2024-01-30T05:13:03;7.38;;;3.97;;
61572;SDS011;47465;43.094;12.434;2024-01-30T05:15:29;7.72;;;3.90;;
61572;SDS011;47465;43.094;12.434;2024-01-30T05:17:55;7.70;;;4.25;;
61572;SDS011;47465;43.094;12.434;2024-01-30T05:20:21;7.55;;;4.15;;
61572;SDS011;47465;43.094;12.434;2024-01-30T05:22:47;7.72;;;4.22;;
61572;SDS011;47465;43.094;12.434;2024-01-30T05:25:13;7.70;;;3.58;;
61572;SDS011;47465;43.094;12.434;2024-01-30T05:27:39;8.07;;;3.75;;
61572;SDS011;47465;43.094;12.434;2024-01-30T05:30:08;8.02;;;3.53;;
61572;SDS011;47465;43.094;12.434;2024-01-30T05:32:34;5.15;;;2.70;;
61572;SDS011;47465;43.094;12.434;2024-01-30T05:35:00;6.25;;;2.80;;
61572;SDS011;47465;43.094;12.434;2024-01-30T05:37:27;7.10;;;2.97;;
61572;SDS011;47465;43.094;12.434;2024-01-30T05:39:53;8.10;;;3.45;;
61572;SDS011;47465;43.094;12.434;2024-01-30T05:42:19;5.63;;;3.70;;
61572;SDS011;47465;43.094;12.434;2024-01-30T05:44:45;4.38;;;2.67;;
61572;SDS011;47465;43.094;12.434;2024-01-30T05:47:12;6.28;;;3.80;;
61572;SDS011;47465;43.094;12.434;2024-01-30T05:49:38;4.30;;;2.92;;
61572;SDS011;47465;43.094;12.434;2024-01-30T05:52:05;6.05;;;3.38;;
61572;SDS011;47465;43.094;12.434;2024-01-30T05:54:31;6.30;;;3.40;;
61572;SDS011;47465;43.094;12.434;2024-01-30T05:56:57;9.85;;;4.13;;
61572;SDS011;47465;43.094;12.434;2024-01-30T05:59:24;8.68;;;3.38;;
61572;SDS011;47465;43.094;12.434;2024-01-30T06:01:50;6.05;;;3.33;;
61572;SDS011;47465;43.094;12.434;2024-01-30T06:04:18;7.13;;;3.42;;
61572;SDS011;47465;43.094;12.434;2024-01-30T06:06:44;6.20;;;2.88;;
61572;SDS011;47465;43.094;12.434;2024-01-30T06:09:10;9.25;;;3.28;;
61572;SDS011;47465;43.094;12.434;2024-01-30T06:11:38;8.27;;;3.40;;
61572;SDS011;47465;43.094;12.434;2024-01-30T06:14:04;5.97;;;3.30;;
61572;SDS011;47465;43.094;12.434;2024-01-30T06:16:31;9.13;;;3.20;;
61572;SDS011;47465;43.094;12.434;2024-01-30T06:18:57;7.78;;;3.10;;
61572;SDS011;47465;43.094;12.434;2024-01-30T06:21:26;6.88;;;3.50;;
61572;SDS011;47465;43.094;12.434;2024-01-30T06:23:52;7.38;;;3.55;;
61572;SDS011;47465;43.094;12.434;2024-01-30T06:26:18;6.40;;;4.30;;
61572;SDS011;47465;43.094;12.434;2024-01-30T06:28:44;7.18;;;3.97;;
61572;SDS011;47465;43.094;12.434;2024-01-30T06:31:10;8.68;;;3.47;;
61572;SDS011;47465;43.094;12.434;2024-01-30T06:33:36;7.97;;;3.70;;
61572;SDS011;47465;43.094;12.434;2024-01-30T06:36:03;6.60;;;4.10;;
61572;SDS011;47465;43.094;12.434;2024-01-30T06:38:30;7.28;;;3.92;;
61572;SDS011;47465;43.094;12.434;2024-01-30T06:40:56;6.45;;;3.58;;
61572;SDS011;47465;43.094;12.434;2024-01-30T06:43:22;6.72;;;3.42;;
61572;SDS011;47465;43.094;12.434;2024-01-30T06:45:48;8.45;;;3.92;;
61572;SDS011;47465;43.094;12.434;2024-01-30T06:48:15;9.07;;;4.40;;
61572;SDS011;47465;43.094;12.434;2024-01-30T06:50:41;7.28;;;3.80;;
61572;SDS011;47465;43.094;12.434;2024-01-30T06:53:07;11.02;;;4.97;;
61572;SDS011;47465;43.094;12.434;2024-01-30T06:55:35;10.98;;;4.60;;
61572;SDS011;47465;43.094;12.434;2024-01-30T06:58:01;10.23;;;3.95;;
61572;SDS011;47465;43.094;12.434;2024-01-30T07:00:27;7.90;;;4.22;;
61572;SDS011;47465;43.094;12.434;2024-01-30T07:02:53;10.38;;;4.13;;
61572;SDS011;47465;43.094;12.434;2024-01-30T07:05:19;10.15;;;5.38;;
61572;SDS011;47465;43.094;12.434;2024-01-30T07:07:47;16.85;;;7.35;;
61572;SDS011;47465;43.094;12.434;2024-01-30T07:10:13;12.88;;;5.47;;
61572;SDS011;47465;43.094;12.434;2024-01-30T07:12:40;12.98;;;6.22;;
61572;SDS011;47465;43.094;12.434;2024-01-30T07:15:06;12.15;;;6.22;;
61572;SDS011;47465;43.094;12.434;2024-01-30T07:17:34;11.73;;;5.82;;
61572;SDS011;47465;43.094;12.434;2024-01-30T07:20:00;13.23;;;5.47;;
61572;SDS011;47465;43.094;12.434;2024-01-30T07:22:28;10.82;;;5.95;;
61572;SDS011;47465;43.094;12.434;2024-01-30T07:24:55;8.57;;;4.55;;
61572;SDS011;47465;43.094;12.434;2024-01-30T07:27:21;11.02;;;5.57;;
61572;SDS011;47465;43.094;12.434;2024-01-30T07:29:48;9.85;;;5.45;;
61572;SDS011;47465;43.094;12.434;2024-01-30T07:32:14;11.52;;;5.35;;
61572;SDS011;47465;43.094;12.434;2024-01-30T07:34:40;13.75;;;6.03;;
61572;SDS011;47465;43.094;12.434;2024-01-30T07:37:06;12.10;;;5.72;;
61572;SDS011;47465;43.094;12.434;2024-01-30T07:39:33;11.77;;;6.72;;
61572;SDS011;47465;43.094;12.434;2024-01-30T07:42:00;14.77;;;6.18;;
61572;SDS011;47465;43.094;12.434;2024-01-30T07:44:26;18.40;;;7.63;;
61572;SDS011;47465;43.094;12.434;2024-01-30T07:46:53;15.93;;;7.13;;
61572;SDS011;47465;43.094;12.434;2024-01-30T07:49:20;17.70;;;7.10;;
61572;SDS011;47465;43.094;12.434;2024-01-30T07:51:46;7.85;;;4.90;;
61572;SDS011;47465;43.094;12.434;2024-01-30T07:54:12;6.97;;;5.15;;
61572;SDS011;47465;43.094;12.434;2024-01-30T07:56:38;11.15;;;5.18;;
61572;SDS011;47465;43.094;12.434;2024-01-30T07:59:04;13.77;;;5.78;;
61572;SDS011;47465;43.094;12.434;2024-01-30T08:01:30;15.02;;;5.18;;
61572;SDS011;47465;43.094;12.434;2024-01-30T08:03:57;17.33;;;6.13;;
61572;SDS011;47465;43.094;12.434;2024-01-30T08:06:23;12.68;;;6.70;;
61572;SDS011;47465;43.094;12.434;2024-01-30T08:08:49;12.98;;;6.32;;
61572;SDS011;47465;43.094;12.434;2024-01-30T08:11:19;15.07;;;6.57;;
61572;SDS011;47465;43.094;12.434;2024-01-30T08:13:45;12.93;;;7.40;;
61572;SDS011;47465;43.094;12.434;2024-01-30T08:16:11;16.48;;;7.35;;
61572;SDS011;47465;43.094;12.434;2024-01-30T08:18:37;14.02;;;6.75;;
61572;SDS011;47465;43.094;12.434;2024-01-30T08:21:06;13.80;;;6.30;;
61572;SDS011;47465;43.094;12.434;2024-01-30T08:23:32;18.60;;;7.00;;
61572;SDS011;47465;43.094;12.434;2024-01-30T08:25:58;9.82;;;6.18;;
61572;SDS011;47465;43.094;12.434;2024-01-30T08:28:24;15.13;;;6.55;;
61572;SDS011;47465;43.094;12.434;2024-01-30T08:30:49;11.50;;;5.97;;
61572;SDS011;47465;43.094;12.434;2024-01-30T08:33:15;18.05;;;7.47;;
61572;SDS011;47465;43.094;12.434;2024-01-30T08:35:42;14.65;;;6.03;;
61572;SDS011;47465;43.094;12.434;2024-01-30T08:38:10;11.70;;;6.43;;
61572;SDS011;47465;43.094;12.434;2024-01-30T08:40:37;11.55;;;6.60;;
61572;SDS011;47465;43.094;12.434;2024-01-30T08:43:03;14.50;;;7.25;;
61572;SDS011;47465;43.094;12.434;2024-01-30T08:45:30;17.73;;;7.15;;
61572;SDS011;47465;43.094;12.434;2024-01-30T08:47:56;20.35;;;7.90;;
61572;SDS011;47465;43.094;12.434;2024-01-30T08:50:22;12.25;;;7.32;;
61572;SDS011;47465;43.094;12.434;2024-01-30T08:52:48;14.93;;;8.10;;
61572;SDS011;47465;43.094;12.434;2024-01-30T08:55:15;13.98;;;8.15;;
61572;SDS011;47465;43.094;12.434;2024-01-30T08:57:41;15.68;;;7.45;;
61572;SDS011;47465;43.094;12.434;2024-01-30T09:00:07;21.67;;;8.15;;
61572;SDS011;47465;43.094;12.434;2024-01-30T09:02:35;20.13;;;8.60;;
61572;SDS011;47465;43.094;12.434;2024-01-30T09:05:01;18.77;;;8.23;;
61572;SDS011;47465;43.094;12.434;2024-01-30T09:07:28;14.70;;;7.85;;
61572;SDS011;47465;43.094;12.434;2024-01-30T09:09:53;14.30;;;7.90;;
61572;SDS011;47465;43.094;12.434;2024-01-30T09:12:21;18.58;;;8.05;;
61572;SDS011;47465;43.094;12.434;2024-01-30T09:14:47;17.45;;;8.85;;
61572;SDS011;47465;43.094;12.434;2024-01-30T09:17:13;20.00;;;9.90;;
61572;SDS011;47465;43.094;12.434;2024-01-30T09:19:39;20.88;;;10.40;;
61572;SDS011;47465;43.094;12.434;2024-01-30T09:22:06;18.48;;;8.98;;
61572;SDS011;47465;43.094;12.434;2024-01-30T09:24:32;17.08;;;9.05;;
61572;SDS011;47465;43.094;12.434;2024-01-30T09:26:58;17.45;;;8.98;;
61572;SDS011;47465;43.094;12.434;2024-01-30T09:29:25;21.70;;;9.13;;
61572;SDS011;47465;43.094;12.434;2024-01-30T09:31:51;16.75;;;8.57;;
61572;SDS011;47465;43.094;12.434;2024-01-30T09:34:17;18.80;;;9.50;;
61572;SDS011;47465;43.094;12.434;2024-01-30T09:36:43;28.38;;;11.82;;
61572;SDS011;47465;43.094;12.434;2024-01-30T09:39:09;27.50;;;11.07;;
61572;SDS011;47465;43.094;12.434;2024-01-30T09:41:36;18.73;;;9.98;;
61572;SDS011;47465;43.094;12.434;2024-01-30T09:44:09;16.67;;;9.52;;
61572;SDS011;47465;43.094;12.434;2024-01-30T09:46:38;17.30;;;9.02;;
61572;SDS011;47465;43.094;12.434;2024-01-30T09:49:05;22.20;;;9.82;;
61572;SDS011;47465;43.094;12.434;2024-01-30T09:51:33;21.77;;;9.60;;
61572;SDS011;47465;43.094;12.434;2024-01-30T09:54:01;18.08;;;9.35;;
61572;SDS011;47465;43.094;12.434;2024-01-30T09:56:28;17.40;;;8.95;;
61572;SDS011;47465;43.094;12.434;2024-01-30T09:58:54;15.65;;;8.20;;
61572;SDS011;47465;43.094;12.434;2024-01-30T10:01:20;16.17;;;8.75;;
61572;SDS011;47465;43.094;12.434;2024-01-30T10:03:50;12.65;;;7.55;;
61572;SDS011;47465;43.094;12.434;2024-01-30T10:06:17;13.85;;;7.45;;
61572;SDS011;47465;43.094;12.434;2024-01-30T10:08:46;13.95;;;8.30;;
61572;SDS011;47465;43.094;12.434;2024-01-30T10:11:12;15.18;;;8.05;;
61572;SDS011;47465;43.094;12.434;2024-01-30T10:13:38;17.17;;;7.43;;
61572;SDS011;47465;43.094;12.434;2024-01-30T10:16:06;12.60;;;6.47;;
61572;SDS011;47465;43.094;12.434;2024-01-30T10:18:32;11.35;;;6.95;;
61572;SDS011;47465;43.094;12.434;2024-01-30T10:21:00;15.05;;;7.07;;
61572;SDS011;47465;43.094;12.434;2024-01-30T10:23:26;13.82;;;7.28;;
61572;SDS011;47465;43.094;12.434;2024-01-30T10:25:52;10.38;;;6.80;;
61572;SDS011;47465;43.094;12.434;2024-01-30T10:28:18;11.57;;;6.22;;
61572;SDS011;47465;43.094;12.434;2024-01-30T10:30:44;14.15;;;6.05;;
61572;SDS011;47465;43.094;12.434;2024-01-30T10:33:10;11.02;;;6.13;;
61572;SDS011;47465;43.094;12.434;2024-01-30T10:35:36;11.55;;;6.10;;
61572;SDS011;47465;43.094;12.434;2024-01-30T10:38:03;13.40;;;5.90;;
61572;SDS011;47465;43.094;12.434;2024-01-30T10:40:34;11.27;;;5.32;;
61572;SDS011;47465;43.094;12.434;2024-01-30T10:43:02;7.32;;;4.70;;
61572;SDS011;47465;43.094;12.434;2024-01-30T10:45:30;8.25;;;4.75;;
61572;SDS011;47465;43.094;12.434;2024-01-30T10:47:58;8.77;;;4.72;;
61572;SDS011;47465;43.094;12.434;2024-01-30T10:50:27;15.75;;;5.88;;
61572;SDS011;47465;43.094;12.434;2024-01-30T10:52:55;14.52;;;6.07;;
61572;SDS011;47465;43.094;12.434;2024-01-30T10:55:35;15.13;;;6.32;;
61572;SDS011;47465;43.094;12.434;2024-01-30T10:58:04;9.60;;;4.95;;
61572;SDS011;47465;43.094;12.434;2024-01-30T11:00:31;11.27;;;5.63;;
61572;SDS011;47465;43.094;12.434;2024-01-30T11:03:05;13.93;;;6.45;;
61572;SDS011;47465;43.094;12.434;2024-01-30T11:05:40;11.32;;;6.32;;
61572;SDS011;47465;43.094;12.434;2024-01-30T11:08:12;10.27;;;5.72;;
61572;SDS011;47465;43.094;12.434;2024-01-30T11:14:32;9.88;;;5.05;;
61572;SDS011;47465;43.094;12.434;2024-01-30T11:16:58;11.18;;;5.40;;
61572;SDS011;47465;43.094;12.434;2024-01-30T11:19:30;9.18;;;4.82;;
61572;SDS011;47465;43.094;12.434;2024-01-30T11:21:58;10.98;;;5.13;;
61572;SDS011;47465;43.094;12.434;2024-01-30T11:24:25;7.90;;;4.72;;
61572;SDS011;47465;43.094;12.434;2024-01-30T11:26:59;9.60;;;5.03;;
61572;SDS011;47465;43.094;12.434;2024-01-30T11:29:27;9.02;;;4.60;;
61572;SDS011;47465;43.094;12.434;2024-01-30T11:31:55;9.63;;;4.57;;
61572;SDS011;47465;43.094;12.434;2024-01-30T11:34:22;7.32;;;3.45;;
61572;SDS011;47465;43.094;12.434;2024-01-30T11:36:51;7.75;;;4.13;;
61572;SDS011;47465;43.094;12.434;2024-01-30T11:39:23;9.98;;;4.32;;
61572;SDS011;47465;43.094;12.434;2024-01-30T11:41:50;7.95;;;4.00;;
61572;SDS011;47465;43.094;12.434;2024-01-30T11:44:17;7.82;;;4.03;;
61572;SDS011;47465;43.094;12.434;2024-01-30T11:46:45;10.02;;;4.60;;
61572;SDS011;47465;43.094;12.434;2024-01-30T11:49:14;10.35;;;5.38;;
61572;SDS011;47465;43.094;12.434;2024-01-30T11:51:41;14.85;;;5.53;;
61572;SDS011;47465;43.094;12.434;2024-01-30T11:54:08;13.43;;;5.70;;
61572;SDS011;47465;43.094;12.434;2024-01-30T11:56:34;8.93;;;4.50;;
61572;SDS011;47465;43.094;12.434;2024-01-30T11:59:00;9.10;;;3.72;;
61572;SDS011;47465;43.094;12.434;2024-01-30T12:01:27;8.38;;;5.00;;
61572;SDS011;47465;43.094;12.434;2024-01-30T12:03:53;7.82;;;4.07;;
61572;SDS011;47465;43.094;12.434;2024-01-30T12:06:20;10.18;;;4.25;;
61572;SDS011;47465;43.094;12.434;2024-01-30T12:08:55;6.93;;;4.05;;
61572;SDS011;47465;43.094;12.434;2024-01-30T12:11:22;7.45;;;4.93;;
61572;SDS011;47465;43.094;12.434;2024-01-30T12:13:48;9.23;;;4.50;;
61572;SDS011;47465;43.094;12.434;2024-01-30T12:16:16;6.22;;;3.83;;
61572;SDS011;47465;43.094;12.434;2024-01-30T12:18:45;7.97;;;4.20;;
61572;SDS011;47465;43.094;12.434;2024-01-30T12:21:11;6.47;;;4.28;;
61572;SDS011;47465;43.094;12.434;2024-01-30T12:23:39;12.27;;;5.38;;
61572;SDS011;47465;43.094;12.434;2024-01-30T12:26:05;8.57;;;4.85;;
61572;SDS011;47465;43.094;12.434;2024-01-30T12:28:32;11.45;;;5.38;;
61572;SDS011;47465;43.094;12.434;2024-01-30T12:31:01;15.48;;;6.47;;
61572;SDS011;47465;43.094;12.434;2024-01-30T12:33:28;9.30;;;5.50;;
61572;SDS011;47465;43.094;12.434;2024-01-30T12:35:54;12.93;;;6.65;;
61572;SDS011;47465;43.094;12.434;2024-01-30T12:38:21;13.50;;;6.38;;
61572;SDS011;47465;43.094;12.434;2024-01-30T12:40:48;9.10;;;5.40;;
61572;SDS011;47465;43.094;12.434;2024-01-30T12:43:14;11.32;;;5.43;;
61572;SDS011;47465;43.094;12.434;2024-01-30T12:45:41;8.23;;;4.60;;
61572;SDS011;47465;43.094;12.434;2024-01-30T12:48:08;10.40;;;4.55;;
61572;SDS011;47465;43.094;12.434;2024-01-30T12:50:34;10.82;;;5.38;;
61572;SDS011;47465;43.094;12.434;2024-01-30T12:53:00;8.27;;;5.05;;
61572;SDS011;47465;43.094;12.434;2024-01-30T12:55:26;9.98;;;4.68;;
61572;SDS011;47465;43.094;12.434;2024-01-30T12:57:55;11.00;;;4.25;;
61572;SDS011;47465;43.094;12.434;2024-01-30T13:00:21;8.15;;;4.32;;
61572;SDS011;47465;43.094;12.434;2024-01-30T13:02:47;7.88;;;4.07;;
61572;SDS011;47465;43.094;12.434;2024-01-30T13:05:14;11.00;;;3.83;;
61572;SDS011;47465;43.094;12.434;2024-01-30T13:07:40;15.30;;;3.88;;
61572;SDS011;47465;43.094;12.434;2024-01-30T13:10:06;4.60;;;2.80;;
61572;SDS011;47465;43.094;12.434;2024-01-30T13:12:32;9.00;;;4.80;;
61572;SDS011;47465;43.094;12.434;2024-01-30T13:15:00;9.65;;;4.18;;
61572;SDS011;47465;43.094;12.434;2024-01-30T13:17:26;5.53;;;2.55;;
61572;SDS011;47465;43.094;12.434;2024-01-30T13:19:52;5.22;;;2.75;;
61572;SDS011;47465;43.094;12.434;2024-01-30T13:22:19;10.43;;;3.95;;
61572;SDS011;47465;43.094;12.434;2024-01-30T13:24:48;6.13;;;3.53;;
61572;SDS011;47465;43.094;12.434;2024-01-30T13:27:14;8.25;;;3.20;;
61572;SDS011;47465;43.094;12.434;2024-01-30T13:29:40;8.60;;;3.80;;
61572;SDS011;47465;43.094;12.434;2024-01-30T13:32:08;9.52;;;4.18;;
61572;SDS011;47465;43.094;12.434;2024-01-30T13:34:34;7.00;;;3.38;;
61572;SDS011;47465;43.094;12.434;2024-01-30T13:37:00;5.90;;;3.17;;
61572;SDS011;47465;43.094;12.434;2024-01-30T13:39:26;10.32;;;3.67;;
61572;SDS011;47465;43.094;12.434;2024-01-30T13:41:52;8.27;;;4.05;;
61572;SDS011;47465;43.094;12.434;2024-01-30T13:44:18;7.88;;;3.70;;
61572;SDS011;47465;43.094;12.434;2024-01-30T13:46:44;8.30;;;3.13;;
61572;SDS011;47465;43.094;12.434;2024-01-30T13:49:13;9.45;;;3.42;;
61572;SDS011;47465;43.094;12.434;2024-01-30T13:51:39;8.88;;;3.00;;
61572;SDS011;47465;43.094;12.434;2024-01-30T13:54:04;6.53;;;3.60;;
61572;SDS011;47465;43.094;12.434;2024-01-30T13:56:31;10.23;;;3.60;;
61572;SDS011;47465;43.094;12.434;2024-01-30T13:58:56;6.82;;;3.47;;
61572;SDS011;47465;43.094;12.434;2024-01-30T14:01:22;7.72;;;3.53;;
61572;SDS011;47465;43.094;12.434;2024-01-30T14:03:49;6.72;;;3.70;;
61572;SDS011;47465;43.094;12.434;2024-01-30T14:06:16;7.93;;;3.60;;
61572;SDS011;47465;43.094;12.434;2024-01-30T14:08:43;12.40;;;3.50;;
61572;SDS011;47465;43.094;12.434;2024-01-30T14:11:09;8.52;;;4.32;;
61572;SDS011;47465;43.094;12.434;2024-01-30T14:13:35;8.02;;;4.03;;
61572;SDS011;47465;43.094;12.434;2024-01-30T14:16:01;7.32;;;3.88;;
61572;SDS011;47465;43.094;12.434;2024-01-30T14:18:27;7.78;;;3.53;;
61572;SDS011;47465;43.094;12.434;2024-01-30T14:20:53;10.43;;;4.22;;
61572;SDS011;47465;43.094;12.434;2024-01-30T14:23:21;12.27;;;4.95;;
61572;SDS011;47465;43.094;12.434;2024-01-30T14:25:47;6.65;;;3.95;;
61572;SDS011;47465;43.094;12.434;2024-01-30T14:28:13;6.75;;;3.10;;